Time;durP1;ratioP1;P1;durP2;ratioP2;P2;SDS_P1;SDS_P2;PMS_P1;PMS_P2;Temp;Humidity;BMP_temperature;BMP_pressure;BME280_temperature;BME280_humidity;BME280_pressure;Samples;Min_cycle;Max_cycle;Signal;HPM_P1;HPM_P2
2022/06/14 00:01:37;;;;;;;3.75;1.65;;;15.70;85.60;;;;;;5012925;28;20030;-59
2022/06/14 00:04:03;;;;;;;4.28;2.88;;;15.60;85.70;;;;;;5012528;28;20026;-48
2022/06/14 00:06:31;;;;;;;3.50;2.10;;;15.60;86.20;;;;;;5012448;28;20033;-46
2022/06/14 00:08:57;;;;;;;4.25;2.03;;;15.60;86.70;;;;;;5010709;28;20032;-48
2022/06/14 00:11:26;;;;;;;2.92;1.85;;;15.60;86.90;;;;;;5012395;28;20462;-51
2022/06/14 00:13:53;;;;;;;3.50;2.03;;;15.60;85.90;;;;;;5012389;28;20034;-49
2022/06/14 00:16:20;;;;;;;4.00;2.13;;;15.60;86.10;;;;;;5011260;28;20030;-46
2022/06/14 00:18:46;;;;;;;5.95;2.13;;;15.60;87.70;;;;;;5012348;28;20030;-50
2022/06/14 00:21:12;;;;;;;3.38;2.03;;;15.50;87.20;;;;;;5012426;28;20044;-50
2022/06/14 00:23:38;;;;;;;4.38;1.77;;;15.50;88.30;;;;;;5012346;28;20018;-50
2022/06/14 00:26:04;;;;;;;3.00;1.77;;;15.50;88.40;;;;;;5012055;28;20405;-47
2022/06/14 00:28:31;;;;;;;3.55;2.38;;;15.40;88.70;;;;;;5012072;28;20033;-50
2022/06/14 00:31:01;;;;;;;11.23;1.90;;;15.30;89.00;;;;;;5012356;28;20030;-47
2022/06/14 00:33:27;;;;;;;3.30;1.75;;;15.30;89.20;;;;;;5012390;28;20113;-50
2022/06/14 00:36:01;;;;;;;5.88;1.85;;;15.30;89.30;;;;;;5012030;28;20466;-50
2022/06/14 00:38:27;;;;;;;1.77;1.65;;;15.20;89.60;;;;;;5011909;28;20056;-51
2022/06/14 00:40:55;;;;;;;3.10;1.73;;;15.20;89.70;;;;;;5012107;28;20030;-48
2022/06/14 00:43:21;;;;;;;2.70;1.48;;;15.10;89.60;;;;;;5012268;28;20037;-50
2022/06/14 00:45:48;;;;;;;2.53;1.65;;;15.10;89.70;;;;;;5012089;28;20592;-48
2022/06/14 00:48:31;;;;;;;2.95;1.63;;;15.00;89.50;;;;;;5011687;28;20025;-50
2022/06/14 00:51:07;;;;;;;2.63;1.77;;;14.90;89.90;;;;;;5010661;28;20390;-53
2022/06/14 00:53:37;;;;;;;;;;;14.80;90.10;;;;;;5012460;28;20058;-48
2022/06/14 00:56:09;;;;;;;3.72;2.00;;;14.80;90.40;;;;;;5012012;28;19910;-49
2022/06/14 00:58:39;;;;;;;2.10;1.98;;;14.70;90.50;;;;;;5011126;28;20117;-48
2022/06/14 01:01:34;;;;;;;2.55;1.70;;;14.70;90.60;;;;;;5010564;28;20018;-48
2022/06/14 01:04:09;;;;;;;5.28;1.85;;;14.70;90.80;;;;;;5010185;28;20030;-48
2022/06/14 01:06:56;;;;;;;3.25;1.95;;;14.70;90.80;;;;;;5010662;28;20022;-49
2022/06/14 01:09:49;;;;;;;2.30;2.00;;;14.70;91.00;;;;;;5011780;28;20014;-52
2022/06/14 01:12:18;;;;;;;4.03;2.10;;;14.70;91.20;;;;;;5011663;28;20027;-52
2022/06/14 01:14:57;;;;;;;3.38;2.00;;;14.70;91.20;;;;;;5011337;28;20022;-50
2022/06/14 01:17:23;;;;;;;4.18;1.67;;;14.60;91.50;;;;;;5011084;28;20034;-53
2022/06/14 01:19:49;;;;;;;3.10;1.95;;;14.60;91.60;;;;;;5011601;28;20024;-51
2022/06/14 01:22:14;;;;;;;6.75;2.20;;;14.60;91.80;;;;;;5011475;28;20485;-46
2022/06/14 01:24:42;;;;;;;2.17;1.80;;;14.60;91.80;;;;;;5011331;28;20033;-48
2022/06/14 01:27:11;;;;;;;6.53;2.20;;;14.50;91.90;;;;;;5011054;28;20470;-46
2022/06/14 01:29:40;;;;;;;4.53;2.50;;;14.50;91.90;;;;;;5011420;28;20149;-48
2022/06/14 01:32:10;;;;;;;3.70;2.00;;;14.50;92.10;;;;;;5011391;28;20030;-47
2022/06/14 01:34:39;;;;;;;3.53;2.08;;;14.50;92.20;;;;;;5011358;28;20030;-52
2022/06/14 01:37:06;;;;;;;5.63;2.00;;;14.40;92.20;;;;;;5012076;28;20018;-50
2022/06/14 01:39:31;;;;;;;2.05;1.95;;;14.40;92.40;;;;;;5015222;28;20104;-50
2022/06/14 01:42:18;;;;;;;2.13;1.90;;;14.40;92.80;;;;;;5015191;28;20113;-49
2022/06/14 01:45:04;;;;;;;7.85;1.98;;;14.30;92.90;;;;;;5015184;28;20034;-52
2022/06/14 01:47:47;;;;;;;3.38;1.95;;;14.30;93.20;;;;;;5014769;28;20056;-47
2022/06/14 01:53:25;;;;;;;5.25;1.92;;;14.30;93.10;;;;;;5015020;28;20033;-48
2022/06/14 01:56:01;;;;;;;2.80;2.05;;;14.20;93.30;;;;;;5014799;28;20026;-53
2022/06/14 01:58:29;;;;;;;6.28;2.20;;;14.20;93.50;;;;;;5012609;28;20018;-49
2022/06/14 02:01:13;;;;;;;7.30;2.20;;;14.20;93.70;;;;;;5014752;28;20018;-47
2022/06/14 02:07:10;;;;;;;3.58;2.03;;;14.10;93.70;;;;;;5014264;28;20032;-47
2022/06/14 02:10:02;;;;;;;2.30;2.10;;;14.10;94.10;;;;;;5014777;28;20112;-48
2022/06/14 02:13:04;;;;;;;1.80;1.70;;;14.10;94.10;;;;;;5014580;28;20401;-48
2022/06/14 02:15:50;;;;;;;2.28;1.90;;;14.10;93.80;;;;;;5014656;28;20034;-50
2022/06/14 02:18:39;;;;;;;5.43;2.40;;;14.10;92.60;;;;;;5012944;28;20021;-47
2022/06/14 02:21:14;;;;;;;2.13;1.90;;;14.00;92.30;;;;;;5014477;28;20018;-47
2022/06/14 02:23:46;;;;;;;4.10;2.20;;;14.10;92.50;;;;;;5014224;28;20034;-53
2022/06/14 02:26:26;;;;;;;5.88;2.65;;;14.10;93.40;;;;;;5014241;28;20038;-53
2022/06/14 02:29:13;;;;;;;5.03;1.95;;;14.00;93.90;;;;;;5014002;28;20524;-49
2022/06/14 02:31:41;;;;;;;6.28;2.17;;;14.00;94.10;;;;;;5014340;28;20490;-52
2022/06/14 02:34:16;;;;;;;5.15;2.55;;;13.90;94.30;;;;;;5014048;28;20057;-50
2022/06/14 02:36:49;;;;;;;3.47;2.08;;;13.90;94.50;;;;;;5014402;28;20486;-49
2022/06/14 02:39:29;;;;;;;5.63;2.33;;;13.80;94.50;;;;;;5014235;28;20026;-47
2022/06/14 02:42:06;;;;;;;5.55;2.25;;;13.80;94.90;;;;;;5014154;28;20018;-47
2022/06/14 02:44:44;;;;;;;3.40;2.08;;;13.70;95.00;;;;;;5014085;28;20469;-49
2022/06/14 02:47:26;;;;;;;4.28;2.40;;;13.60;95.40;;;;;;5013663;28;20056;-47
2022/06/14 02:49:55;;;;;;;3.50;2.65;;;13.50;95.80;;;;;;5013938;28;20030;-48
2022/06/14 02:52:24;;;;;;;2.85;2.20;;;13.50;96.00;;;;;;5013738;28;20553;-50
2022/06/14 02:54:55;;;;;;;5.07;2.72;;;13.40;96.00;;;;;;5013660;28;20692;-49
2022/06/14 02:57:29;;;;;;;4.00;2.70;;;13.40;96.10;;;;;;5013452;28;20018;-48
2022/06/14 02:59:59;;;;;;;3.45;2.10;;;13.40;95.80;;;;;;5013542;28;20029;-46
2022/06/14 03:02:36;;;;;;;8.27;3.05;;;13.30;95.90;;;;;;5013380;28;20077;-49
2022/06/14 03:05:17;;;;;;;5.10;2.60;;;13.30;95.70;;;;;;5013818;28;20026;-45
2022/06/14 03:07:56;;;;;;;2.65;2.10;;;13.30;95.90;;;;;;5013242;28;20029;-47
2022/06/14 03:10:27;;;;;;;4.13;2.40;;;13.40;96.10;;;;;;5013773;28;20045;-48
2022/06/14 03:13:14;;;;;;;2.28;2.05;;;13.30;96.20;;;;;;5012295;28;20494;-47
2022/06/14 03:16:04;;;;;;;3.50;2.15;;;13.30;96.60;;;;;;5012115;28;20053;-47
2022/06/14 03:18:52;;;;;;;3.25;2.20;;;13.30;96.80;;;;;;5013014;28;20018;-47
2022/06/14 03:21:37;;;;;;;2.65;2.30;;;13.20;96.70;;;;;;5012250;28;20022;-47
2022/06/14 03:24:14;;;;;;;4.03;2.30;;;13.20;96.40;;;;;;5013713;28;20033;-50
2022/06/14 03:26:52;;;;;;;4.57;2.70;;;13.20;97.00;;;;;;5013318;28;20096;-51
2022/06/14 03:29:29;;;;;;;6.50;2.33;;;13.20;97.10;;;;;;5011965;28;20030;-48
2022/06/14 03:32:09;;;;;;;5.47;3.17;;;13.20;96.70;;;;;;5013072;28;20117;-47
2022/06/14 03:34:42;;;;;;;5.40;2.60;;;13.10;96.90;;;;;;5013060;28;20072;-52
2022/06/14 03:37:09;;;;;;;5.90;2.88;;;13.10;97.10;;;;;;5012642;28;20068;-47
2022/06/14 03:39:39;;;;;;;6.50;2.45;;;13.20;96.30;;;;;;5013095;28;20218;-45
2022/06/14 03:42:08;;;;;;;3.08;2.60;;;13.20;96.50;;;;;;5012840;28;20032;-47
2022/06/14 03:44:34;;;;;;;3.10;2.22;;;13.20;97.00;;;;;;5012776;28;20022;-50
2022/06/14 03:47:23;;;;;;;5.88;2.70;;;13.30;96.60;;;;;;5012335;28;20050;-48
2022/06/14 03:49:58;;;;;;;5.70;3.00;;;13.40;96.60;;;;;;5012734;28;20033;-45
2022/06/14 03:52:51;;;;;;;4.55;2.45;;;13.50;96.80;;;;;;5006242;28;20536;-52
2022/06/14 03:55:58;;;;;;;6.63;2.75;;;13.50;96.40;;;;;;5012773;28;20044;-48
2022/06/14 03:58:35;;;;;;;3.55;2.47;;;13.60;96.10;;;;;;5000174;28;20041;-50
2022/06/14 04:01:12;;;;;;;4.80;2.15;;;13.60;96.00;;;;;;5001448;28;20084;-50
2022/06/14 04:03:54;;;;;;;4.60;2.17;;;13.70;95.50;;;;;;5007905;28;20479;-50
2022/06/14 04:06:34;;;;;;;5.10;2.50;;;13.80;95.60;;;;;;5005062;28;20026;-47
2022/06/14 04:09:28;;;;;;;6.88;2.60;;;13.80;95.70;;;;;;4993614;28;20065;-49
2022/06/14 04:12:06;;;;;;;3.70;2.67;;;13.90;95.70;;;;;;5005927;28;20034;-51
2022/06/14 04:14:41;;;;;;;7.35;2.80;;;14.00;95.40;;;;;;4993563;28;20459;-51
2022/06/14 04:17:27;;;;;;;5.68;3.15;;;14.00;95.50;;;;;;4997685;28;20080;-49
2022/06/14 04:20:02;;;;;;;2.53;2.30;;;14.10;95.60;;;;;;4992704;28;20101;-49
2022/06/14 04:22:46;;;;;;;7.00;2.78;;;14.10;95.60;;;;;;4992526;28;20039;-48
2022/06/14 04:25:42;;;;;;;3.63;2.67;;;14.20;95.70;;;;;;5011410;28;20108;-47
2022/06/14 04:28:18;;;;;;;2.50;2.30;;;14.20;95.50;;;;;;4995729;28;20039;-48
2022/06/14 04:31:10;;;;;;;4.07;2.58;;;14.30;95.40;;;;;;4995488;28;20030;-48
2022/06/14 04:34:04;;;;;;;6.38;3.03;;;14.50;95.20;;;;;;5003754;28;20077;-47
2022/06/14 04:36:35;;;;;;;2.22;1.95;;;14.60;95.20;;;;;;5007014;28;20037;-49
2022/06/14 04:39:22;;;;;;;9.35;2.50;;;14.70;95.20;;;;;;4992212;28;20035;-47
2022/06/14 04:42:04;;;;;;;5.55;2.60;;;14.80;94.80;;;;;;5001724;28;20037;-48
2022/06/14 04:44:53;;;;;;;5.20;2.65;;;14.80;95.00;;;;;;4992300;28;20116;-50
2022/06/14 04:47:45;;;;;;;2.95;2.30;;;14.90;94.60;;;;;;4991883;28;20027;-49
2022/06/14 04:50:19;;;;;;;4.28;2.70;;;15.10;94.50;;;;;;4992276;28;20490;-50
2022/06/14 04:52:53;;;;;;;4.82;2.88;;;15.30;93.70;;;;;;4996102;28;20026;-50
2022/06/14 04:55:30;;;;;;;4.97;2.13;;;15.60;93.20;;;;;;5011590;28;20029;-48
2022/06/14 04:58:00;;;;;;;5.90;2.78;;;16.20;91.70;;;;;;5011460;28;20418;-48
2022/06/14 05:00:34;;;;;;;9.00;2.05;;;16.90;90.00;;;;;;5011739;28;20022;-49
2022/06/14 05:03:19;;;;;;;8.60;2.00;;;17.70;87.20;;;;;;5011748;28;20521;-49
2022/06/14 05:05:59;;;;;;;2.53;1.77;;;18.80;83.80;;;;;;5011533;28;20026;-47
2022/06/14 05:08:37;;;;;;;2.30;1.52;;;20.10;78.90;;;;;;5011303;28;20632;-49
2022/06/14 05:11:20;;;;;;;5.90;1.85;;;21.10;75.50;;;;;;5012878;28;20061;-46
2022/06/14 05:13:51;;;;;;;4.10;2.00;;;21.70;72.60;;;;;;5015007;28;20101;-48
2022/06/14 05:16:23;;;;;;;5.80;1.55;;;22.40;71.50;;;;;;5015581;28;20427;-48
2022/06/14 05:19:11;;;;;;;2.85;1.40;;;22.70;70.50;;;;;;5015212;28;20470;-49
2022/06/14 05:21:46;;;;;;;3.83;1.65;;;22.90;68.70;;;;;;5015591;28;20022;-47
2022/06/14 05:24:12;;;;;;;6.30;2.35;;;22.50;68.80;;;;;;5015272;28;20587;-48
2022/06/14 05:27:05;;;;;;;2.40;1.73;;;22.40;69.60;;;;;;5015414;28;20098;-48
2022/06/14 05:29:44;;;;;;;4.82;1.70;;;22.50;69.40;;;;;;5009275;28;20022;-50
2022/06/14 05:32:46;;;;;;;9.35;1.77;;;22.90;68.80;;;;;;4995790;28;20101;-47
2022/06/14 05:35:30;;;;;;;4.50;1.40;;;23.00;68.30;;;;;;4995403;28;20038;-48
2022/06/14 05:38:00;;;;;;;4.72;1.70;;;22.90;68.20;;;;;;4995384;28;20106;-50
2022/06/14 05:40:41;;;;;;;3.90;1.70;;;23.10;67.50;;;;;;4995545;28;20505;-47
2022/06/14 05:43:16;;;;;;;6.32;1.63;;;23.20;67.90;;;;;;4995405;28;20101;-47
2022/06/14 05:45:49;;;;;;;;;;;23.30;67.10;;;;;;4994718;28;20393;-48
2022/06/14 05:48:23;;;;;;;5.93;1.77;;;23.50;66.50;;;;;;4993799;28;19909;-49
2022/06/14 05:50:54;;;;;;;3.55;1.83;;;23.30;67.30;;;;;;4995573;28;20022;-50
2022/06/14 05:53:38;;;;;;;3.15;1.60;;;23.40;67.00;;;;;;4995291;28;20054;-52
2022/06/14 05:56:28;;;;;;;2.90;1.52;;;23.40;66.80;;;;;;4995102;28;20062;-52
2022/06/14 05:59:03;;;;;;;5.13;1.63;;;23.50;67.20;;;;;;4994966;28;20073;-52
2022/06/14 06:01:41;;;;;;;2.83;1.40;;;24.10;66.20;;;;;;4995287;28;20026;-51
2022/06/14 06:04:20;;;;;;;2.25;1.90;;;24.50;65.50;;;;;;4995095;28;20429;-50
2022/06/14 06:06:51;;;;;;;1.52;1.13;;;24.30;64.40;;;;;;4994806;28;20077;-46
2022/06/14 06:09:25;;;;;;;6.88;1.70;;;24.20;65.50;;;;;;5002154;28;20133;-45
2022/06/14 06:12:04;;;;;;;10.83;2.00;;;24.60;64.80;;;;;;5009503;28;20125;-48
2022/06/14 06:14:38;;;;;;;7.00;1.75;;;24.80;65.20;;;;;;4993036;28;20022;-49
2022/06/14 06:17:10;;;;;;;3.43;1.60;;;25.50;63.60;;;;;;5008014;28;20068;-50
2022/06/14 06:20:15;;;;;;;4.95;1.67;;;26.40;62.70;;;;;;5014319;28;20033;-47
2022/06/14 06:22:52;;;;;;;3.42;2.05;;;26.90;61.30;;;;;;5012627;28;20025;-46
2022/06/14 06:25:30;;;;;;;1.27;1.15;;;27.40;60.90;;;;;;5016344;28;20405;-47
2022/06/14 06:28:05;;;;;;;6.15;1.48;;;27.40;59.50;;;;;;5007224;28;20030;-47
2022/06/14 06:30:39;;;;;;;3.22;0.90;;;27.40;60.30;;;;;;5005257;28;20034;-46
2022/06/14 06:33:06;;;;;;;2.97;1.20;;;27.00;59.70;;;;;;5011935;28;20501;-46
2022/06/14 06:35:53;;;;;;;6.85;1.50;;;27.50;58.70;;;;;;4995687;28;20026;-47
2022/06/14 06:38:40;;;;;;;5.65;1.13;;;27.90;58.30;;;;;;5005626;28;20506;-49
2022/06/14 06:44:00;;;;;;;5.00;1.50;;;28.50;57.80;;;;;;4994565;28;20030;-49
2022/06/14 06:46:31;;;;;;;2.42;1.23;;;28.60;56.80;;;;;;4994962;28;20105;-47
2022/06/14 06:48:59;;;;;;;4.22;1.30;;;28.60;56.80;;;;;;5010101;28;20033;-46
2022/06/14 06:51:34;;;;;;;5.70;1.42;;;28.90;56.70;;;;;;5010676;28;20041;-53
2022/06/14 06:54:27;;;;;;;2.78;1.38;;;29.30;55.60;;;;;;5008213;28;20030;-51
2022/06/14 06:56:56;;;;;;;4.90;1.30;;;29.00;55.30;;;;;;5012485;28;20120;-45
2022/06/14 06:59:39;;;;;;;4.15;1.30;;;28.50;56.60;;;;;;5013402;28;20037;-48
2022/06/14 07:02:24;;;;;;;2.05;1.30;;;28.50;56.40;;;;;;5005106;28;20022;-55
2022/06/14 07:05:03;;;;;;;3.10;1.17;;;28.90;55.80;;;;;;5008651;28;20097;-46
2022/06/14 07:07:55;;;;;;;3.17;1.15;;;29.00;56.40;;;;;;4995724;28;20030;-49
2022/06/14 07:10:29;;;;;;;2.85;1.38;;;29.00;56.80;;;;;;4994128;28;20037;-45
2022/06/14 07:13:03;;;;;;;;;;;28.80;56.10;;;;;;4994815;28;20401;-48
2022/06/14 07:15:40;;;;;;;1.92;1.15;;;29.30;56.20;;;;;;4993667;28;19965;-48
2022/06/14 07:18:05;;;;;;;2.85;1.60;;;28.80;55.60;;;;;;4999241;28;20030;-49
2022/06/14 07:20:55;;;;;;;6.50;1.58;;;28.30;57.20;;;;;;5013781;28;20465;-49
2022/06/14 07:23:39;;;;;;;4.30;1.42;;;28.70;56.30;;;;;;5013969;28;20018;-47
2022/06/14 07:26:07;;;;;;;2.78;1.30;;;28.90;55.80;;;;;;5013006;28;20104;-46
2022/06/14 07:28:47;;;;;;;3.70;1.50;;;29.10;55.50;;;;;;4997875;28;20506;-46
2022/06/14 07:31:23;;;;;;;4.60;1.33;;;29.50;55.30;;;;;;4995683;28;20034;-47
2022/06/14 07:33:49;;;;;;;5.50;1.30;;;30.10;55.40;;;;;;4994007;28;20037;-54
2022/06/14 07:36:27;;;;;;;2.72;1.50;;;30.40;54.30;;;;;;4993080;28;20030;-47
2022/06/14 07:39:06;;;;;;;5.32;1.48;;;30.70;54.20;;;;;;4993660;28;20050;-46
2022/06/14 07:41:51;;;;;;;2.78;1.35;;;31.00;53.70;;;;;;4993621;28;20018;-46
2022/06/14 07:44:56;;;;;;;4.60;1.45;;;31.00;54.10;;;;;;5009170;28;20076;-48
2022/06/14 07:47:37;;;;;;;;;;;31.10;53.90;;;;;;5013933;28;20126;-47
2022/06/14 07:50:22;;;;;;;4.28;1.55;;;30.70;54.00;;;;;;5014623;28;19949;-47
2022/06/14 07:53:17;;;;;;;3.78;1.38;;;31.10;54.00;;;;;;5013320;28;20029;-45
2022/06/14 07:55:50;;;;;;;5.68;1.40;;;31.40;53.00;;;;;;5008696;28;20026;-47
2022/06/14 07:58:23;;;;;;;5.93;1.50;;;31.80;52.70;;;;;;5012266;28;20041;-46
2022/06/14 08:01:07;;;;;;;5.00;1.88;;;32.00;52.80;;;;;;5013078;28;20280;-47
2022/06/14 08:03:58;;;;;;;4.53;2.10;;;32.90;51.80;;;;;;5013342;28;20017;-44
2022/06/14 08:06:40;;;;;;;3.45;1.42;;;33.30;50.60;;;;;;5014453;28;20026;-47
2022/06/14 08:09:08;;;;;;;8.48;1.52;;;32.60;50.10;;;;;;4996022;28;20048;-48
2022/06/14 08:11:57;;;;;;;4.85;1.55;;;32.20;50.90;;;;;;4995759;28;20062;-48
2022/06/14 08:14:46;;;;;;;5.03;1.75;;;32.20;51.20;;;;;;4995881;28;20486;-46
2022/06/14 08:17:19;;;;;;;2.88;1.42;;;32.60;50.70;;;;;;4995115;28;20033;-50
2022/06/14 08:19:57;;;;;;;3.17;1.50;;;32.60;49.70;;;;;;4995264;28;20030;-46
2022/06/14 08:22:33;;;;;;;4.57;1.58;;;32.20;49.90;;;;;;4995346;28;20030;-46
2022/06/14 08:25:04;;;;;;;3.38;1.40;;;31.60;51.50;;;;;;4993986;28;20046;-51
2022/06/14 08:27:39;;;;;;;2.97;1.40;;;31.10;51.90;;;;;;5009241;28;20033;-52
2022/06/14 08:30:13;;;;;;;4.70;1.83;;;30.70;52.60;;;;;;4994106;28;20081;-46
2022/06/14 08:32:41;;;;;;;4.00;1.67;;;30.20;52.40;;;;;;4994570;28;20121;-46
2022/06/14 08:35:16;;;;;;;4.80;1.83;;;29.80;52.40;;;;;;4994233;28;20036;-45
2022/06/14 08:37:49;;;;;;;2.58;1.63;;;29.60;54.00;;;;;;4994664;28;20485;-45
2022/06/14 08:40:42;;;;;;;3.30;1.60;;;29.70;53.10;;;;;;4994083;28;20420;-46
2022/06/14 08:43:11;;;;;;;5.75;1.80;;;29.60;52.90;;;;;;4994533;28;20023;-45
2022/06/14 08:45:45;;;;;;;3.30;1.50;;;29.30;52.60;;;;;;4993953;28;20114;-44
2022/06/14 08:48:38;;;;;;;7.88;1.50;;;28.50;53.50;;;;;;4992703;28;20034;-49
2022/06/14 08:51:13;;;;;;;5.18;1.70;;;28.20;55.20;;;;;;4992286;28;20042;-50
2022/06/14 08:54:06;;;;;;;2.22;1.30;;;28.10;54.30;;;;;;4992782;28;20588;-45
2022/06/14 08:56:47;;;;;;;6.75;1.80;;;28.00;53.80;;;;;;4991936;28;20052;-45
2022/06/14 08:59:36;;;;;;;5.68;1.73;;;27.90;54.20;;;;;;4992638;28;20054;-46
2022/06/14 09:02:14;;;;;;;3.10;1.58;;;27.90;54.80;;;;;;4993724;28;20066;-50
2022/06/14 09:05:12;;;;;;;2.10;1.38;;;27.80;55.00;;;;;;4993398;28;20153;-51
2022/06/14 09:08:25;;;;;;;3.67;1.50;;;27.90;56.00;;;;;;4993953;28;20019;-49
2022/06/14 09:11:09;;;;;;;8.02;4.05;;;28.00;55.40;;;;;;4994329;28;20023;-50
2022/06/14 09:13:56;;;;;;;5.05;2.47;;;27.90;54.80;;;;;;4993685;28;20514;-46
2022/06/14 09:16:57;;;;;;;4.82;3.22;;;27.60;53.90;;;;;;4994955;28;20113;-46
2022/06/14 09:20:00;;;;;;;7.55;1.85;;;27.60;54.80;;;;;;4994797;28;20100;-50
2022/06/14 09:23:14;;;;;;;2.50;1.50;;;27.70;55.30;;;;;;4994366;28;20402;-46
2022/06/14 09:26:00;;;;;;;7.28;1.33;;;27.70;53.70;;;;;;4948627;28;20046;-48
2022/06/14 09:29:06;;;;;;;5.18;1.80;;;27.00;54.10;;;;;;4994295;28;20070;-50
2022/06/14 09:31:57;;;;;;;1.95;1.30;;;27.10;54.90;;;;;;4992912;28;20026;-46
2022/06/14 09:34:44;;;;;;;5.07;1.30;;;27.20;54.40;;;;;;4994399;28;20158;-47
2022/06/14 09:37:16;;;;;;;3.13;1.50;;;27.40;55.50;;;;;;4994133;28;20048;-47
2022/06/14 09:39:55;;;;;;;5.72;1.90;;;27.40;54.90;;;;;;4993982;28;20479;-47
2022/06/14 09:42:51;;;;;;;3.38;1.40;;;27.30;55.70;;;;;;4994459;28;20030;-46
2022/06/14 09:45:30;;;;;;;2.70;1.13;;;27.10;56.00;;;;;;4994142;28;20110;-46
2022/06/14 09:48:14;;;;;;;4.55;1.25;;;26.90;54.80;;;;;;4993711;28;20031;-48
2022/06/14 09:51:12;;;;;;;2.78;1.40;;;26.80;56.10;;;;;;4993791;28;20026;-50
2022/06/14 09:54:11;;;;;;;2.83;1.20;;;26.50;55.90;;;;;;4994276;28;20030;-44
2022/06/14 09:56:43;;;;;;;3.03;1.63;;;26.20;55.20;;;;;;4993141;28;20038;-46
2022/06/14 09:59:45;;;;;;;4.63;1.60;;;26.10;55.00;;;;;;4996179;28;20030;-48
2022/06/14 10:02:13;;;;;;;3.70;1.48;;;26.10;55.60;;;;;;4997261;28;20030;-46
2022/06/14 10:05:23;;;;;;;2.78;1.15;;;26.10;55.30;;;;;;4996610;28;20030;-47
2022/06/14 10:08:17;;;;;;;4.43;1.58;;;25.90;52.80;;;;;;4996969;28;20057;-49
2022/06/14 10:11:11;;;;;;;2.05;1.30;;;25.80;53.90;;;;;;4997995;28;20077;-46
2022/06/14 10:13:53;;;;;;;1.98;1.23;;;25.80;53.20;;;;;;4996956;28;20014;-48
2022/06/14 10:16:42;;;;;;;6.93;1.45;;;25.70;52.90;;;;;;4996453;28;20501;-48
2022/06/14 10:19:22;;;;;;;5.03;1.45;;;25.40;52.40;;;;;;4997484;28;20030;-50
2022/06/14 10:22:08;;;;;;;7.20;1.35;;;25.30;54.00;;;;;;4996946;28;20491;-49
2022/06/14 10:24:40;;;;;;;3.03;1.00;;;25.10;53.30;;;;;;4997169;28;20030;-48
2022/06/14 10:30:47;;;;;;;1.92;0.80;;;25.30;52.20;;;;;;4996306;28;20033;-47
2022/06/14 10:33:53;;;;;;;3.78;1.10;;;25.40;50.00;;;;;;4996312;28;20026;-51
2022/06/14 10:36:48;;;;;;;7.70;1.73;;;25.20;52.20;;;;;;4995802;28;20031;-46
2022/06/14 10:39:43;;;;;;;2.35;1.20;;;25.20;52.30;;;;;;4996471;28;20031;-47
2022/06/14 10:42:16;;;;;;;6.55;1.35;;;25.10;52.20;;;;;;4996263;28;20023;-48
2022/06/14 10:44:51;;;;;;;4.57;1.27;;;25.00;53.40;;;;;;4996190;28;20458;-45
2022/06/14 10:47:30;;;;;;;;;;;24.90;54.30;;;;;;4997058;28;20482;-50
2022/06/14 10:50:03;;;;;;;2.75;1.30;;;24.80;54.60;;;;;;5018263;28;19913;-52
2022/06/14 10:52:37;;;;;;;2.80;1.45;;;24.80;53.30;;;;;;5013318;28;20189;-48
2022/06/14 10:55:33;;;;;;;3.88;1.58;;;24.70;54.40;;;;;;5004759;28;20022;-44
2022/06/14 10:58:11;;;;;;;4.25;1.23;;;24.80;53.90;;;;;;4995239;28;20452;-45
2022/06/14 11:00:59;;;;;;;5.10;1.50;;;24.70;53.60;;;;;;5009077;28;20447;-49
2022/06/14 11:03:28;;;;;;;39.95;23.08;;;24.50;54.80;;;;;;4994068;28;20034;-50
2022/06/14 11:06:06;;;;;;;5.20;1.50;;;24.50;54.80;;;;;;5002603;28;20030;-50
2022/06/14 11:08:59;;;;;;;7.35;1.40;;;24.40;53.70;;;;;;5012794;28;20406;-47
2022/06/14 11:11:40;;;;;;;2.92;1.38;;;24.20;52.90;;;;;;5013082;28;20033;-45
2022/06/14 11:14:40;;;;;;;5.65;1.20;;;24.00;52.70;;;;;;5001360;28;20287;-44
2022/06/14 11:17:09;;;;;;;5.55;1.15;;;24.00;54.20;;;;;;5013404;28;20073;-46
2022/06/14 11:19:49;;;;;;;4.45;1.20;;;23.90;54.70;;;;;;5000290;28;20049;-45
2022/06/14 11:22:33;;;;;;;4.25;1.08;;;23.80;54.50;;;;;;4993855;28;20061;-43
2022/06/14 11:25:17;;;;;;;1.88;1.10;;;23.80;54.90;;;;;;4993222;28;20030;-44
2022/06/14 11:28:17;;;;;;;2.35;1.30;;;23.80;53.50;;;;;;4993323;28;20031;-44
2022/06/14 11:31:20;;;;;;;4.03;1.30;;;23.90;52.90;;;;;;4975106;28;20088;-45
2022/06/14 11:34:36;;;;;;;3.55;1.17;;;24.00;53.30;;;;;;5013194;28;20489;-43
2022/06/14 11:37:23;;;;;;;3.55;1.13;;;24.20;54.10;;;;;;4986361;28;20052;-43
2022/06/14 11:40:09;;;;;;;2.88;1.27;;;24.20;54.70;;;;;;5013239;28;20370;-45
2022/06/14 11:43:01;;;;;;;2.47;1.30;;;24.20;53.30;;;;;;5008300;28;20014;-46
2022/06/14 11:45:49;;;;;;;4.57;1.13;;;24.10;54.20;;;;;;4993488;28;20022;-48
2022/06/14 11:48:33;;;;;;;2.40;1.20;;;24.00;52.70;;;;;;5009679;28;20045;-45
2022/06/14 11:51:22;;;;;;;2.03;1.00;;;23.80;53.70;;;;;;5012930;28;20052;-47
2022/06/14 11:54:06;;;;;;;3.13;1.40;;;23.80;55.10;;;;;;5012748;28;20018;-49
2022/06/14 11:56:54;;;;;;;1.67;1.25;;;23.90;54.20;;;;;;5012564;28;20021;-49
2022/06/14 11:59:31;;;;;;;2.47;1.20;;;24.00;53.10;;;;;;5004452;28;20018;-45
2022/06/14 12:02:24;;;;;;;5.90;1.77;;;24.00;52.80;;;;;;4993029;28;20027;-46
2022/06/14 12:05:16;;;;;;;1.17;1.05;;;24.00;53.10;;;;;;4993019;28;20085;-43
2022/06/14 12:07:49;;;;;;;1.65;1.40;;;24.00;53.30;;;;;;4992637;28;20030;-47
2022/06/14 12:10:33;;;;;;;5.70;1.20;;;24.00;53.30;;;;;;4992909;28;20030;-51
2022/06/14 12:13:50;;;;;;;2.17;1.05;;;24.00;52.80;;;;;;4992785;28;20398;-49
2022/06/14 12:16:27;;;;;;;66.28;43.85;;;24.10;53.40;;;;;;4922666;28;20042;-44
2022/06/14 12:19:09;;;;;;;7.40;4.18;;;24.20;54.40;;;;;;4992401;28;20109;-44
2022/06/14 12:21:50;;;;;;;1.83;1.30;;;24.20;53.60;;;;;;4992247;28;20092;-46
2022/06/14 12:24:21;;;;;;;1.80;1.50;;;24.30;53.80;;;;;;4992346;28;20045;-49
2022/06/14 12:26:59;;;;;;;1.60;1.08;;;24.40;54.60;;;;;;4992855;28;20023;-44
2022/06/14 12:29:32;;;;;;;2.85;1.30;;;24.40;52.90;;;;;;4992466;28;20042;-51
2022/06/14 12:32:42;;;;;;;3.88;1.58;;;24.40;53.20;;;;;;4992489;28;20026;-44
2022/06/14 12:35:18;;;;;;;2.63;1.58;;;24.40;52.80;;;;;;4934803;29;20032;-45
2022/06/14 12:37:52;;;;;;;1.38;1.20;;;24.30;54.00;;;;;;4947663;28;20032;-46
2022/06/14 12:40:52;;;;;;;3.30;1.58;;;24.40;53.70;;;;;;4969982;28;20506;-48
2022/06/14 12:43:25;;;;;;;1.20;1.10;;;24.40;53.70;;;;;;4992184;28;20174;-47
2022/06/14 12:46:09;;;;;;;0.93;0.90;;;24.60;54.70;;;;;;5002575;28;20501;-45
2022/06/14 12:48:53;;;;;;;1.77;1.27;;;24.60;54.00;;;;;;5010801;28;20037;-48
2022/06/14 12:51:38;;;;;;;7.05;1.40;;;24.60;53.20;;;;;;5005466;28;20052;-46
2022/06/14 12:54:42;;;;;;;1.48;1.10;;;24.70;53.20;;;;;;5002172;28;20434;-52
2022/06/14 12:57:25;;;;;;;4.22;1.48;;;24.70;53.10;;;;;;5002037;28;20026;-45
2022/06/14 13:00:02;;;;;;;8.48;1.80;;;24.70;53.10;;;;;;5009759;28;20461;-51
2022/06/14 13:02:35;;;;;;;7.80;5.28;;;24.60;53.00;;;;;;5006965;28;20084;-46
2022/06/14 13:05:04;;;;;;;5.18;1.70;;;24.60;51.80;;;;;;4992174;28;20450;-50
2022/06/14 13:07:40;;;;;;;3.78;1.27;;;24.50;51.70;;;;;;5008271;28;20022;-44
2022/06/14 13:10:19;;;;;;;2.30;1.42;;;24.40;51.40;;;;;;5010612;28;20056;-44
2022/06/14 13:12:50;;;;;;;2.47;1.30;;;24.50;52.50;;;;;;5011760;28;20026;-46
2022/06/14 13:15:48;;;;;;;4.43;1.48;;;24.40;52.70;;;;;;5011279;28;20469;-48
2022/06/14 13:18:34;;;;;;;2.13;1.10;;;24.50;51.80;;;;;;5010795;28;20357;-49
2022/06/14 13:21:32;;;;;;;4.80;1.10;;;24.60;51.80;;;;;;4993178;28;20026;-47
2022/06/14 13:24:20;;;;;;;1.92;1.40;;;24.60;53.00;;;;;;5003780;28;20168;-48
2022/06/14 13:27:19;;;;;;;2.05;1.27;;;24.60;51.50;;;;;;5005541;28;20045;-48
2022/06/14 13:29:58;;;;;;;5.07;1.08;;;24.70;48.70;;;;;;5011344;28;20439;-47
2022/06/14 13:32:42;;;;;;;1.60;1.17;;;24.60;49.00;;;;;;5012860;28;20389;-47
2022/06/14 13:35:29;;;;;;;2.63;1.20;;;24.70;49.80;;;;;;5015303;28;20036;-45
2022/06/14 13:38:08;;;;;;;2.40;0.90;;;24.70;49.00;;;;;;5014766;28;20057;-47
2022/06/14 13:40:55;;;;;;;6.07;1.02;;;24.60;48.10;;;;;;5014784;28;20030;-44
2022/06/14 13:43:38;;;;;;;3.10;1.05;;;24.50;47.80;;;;;;5014720;28;20018;-46
2022/06/14 13:46:22;;;;;;;3.40;1.80;;;24.40;46.70;;;;;;5013911;28;20037;-45
2022/06/14 13:49:21;;;;;;;2.25;1.00;;;24.50;46.90;;;;;;4995017;28;20153;-43
2022/06/14 13:51:59;;;;;;;2.38;0.82;;;24.60;46.70;;;;;;5003541;28;20038;-45
2022/06/14 13:54:34;;;;;;;1.40;0.90;;;24.60;45.80;;;;;;5014945;28;20221;-46
2022/06/14 13:57:28;;;;;;;3.33;0.80;;;24.80;45.70;;;;;;5014316;28;20033;-48
2022/06/14 14:00:00;;;;;;;1.48;1.00;;;24.80;45.20;;;;;;5014881;28;20026;-53
2022/06/14 14:02:51;;;;;;;14.98;10.07;;;24.80;46.70;;;;;;5010863;28;20029;-44
2022/06/14 14:05:43;;;;;;;80.07;62.03;;;24.80;47.40;;;;;;5014307;28;20505;-46
2022/06/14 14:08:30;;;;;;;1.80;1.30;;;24.80;47.90;;;;;;5013143;28;20037;-48
2022/06/14 14:11:08;;;;;;;1.88;1.10;;;24.80;47.80;;;;;;5010856;28;20045;-50